createdAt,value
2023-05-02T00:04:00.401Z,7.80
2023-05-02T00:14:26.291Z,7.60
2023-05-02T00:24:52.508Z,7.30
2023-05-02T00:35:18.098Z,7.80
2023-05-02T00:45:46.413Z,9.00
2023-05-02T00:56:12.394Z,9.50
2023-05-02T01:06:49.266Z,10.00
2023-05-02T01:17:18.270Z,8.20
2023-05-02T01:27:57.772Z,8.20
2023-05-02T01:38:26.449Z,7.80
2023-05-02T01:48:56.341Z,8.70
2023-05-02T01:59:24.042Z,9.40
2023-05-02T02:09:50.490Z,7.90
2023-05-02T02:20:18.102Z,8.00
2023-05-02T02:30:43.885Z,7.50
2023-05-02T02:41:17.857Z,9.10
2023-05-02T02:51:52.196Z,9.70
2023-05-02T03:02:32.205Z,8.90
2023-05-02T03:12:57.966Z,9.70
2023-05-02T03:23:23.429Z,10.70
2023-05-02T03:33:49.259Z,10.40
2023-05-02T03:44:15.219Z,9.90
2023-05-02T03:54:41.830Z,10.70
2023-05-02T04:05:28.076Z,11.60
2023-05-02T04:15:53.896Z,10.10
2023-05-02T04:26:19.870Z,9.40
2023-05-02T04:36:48.010Z,10.90
2023-05-02T04:57:40.134Z,10.00
2023-05-02T05:08:06.427Z,9.90
2023-05-02T05:18:34.530Z,12.40
2023-05-02T05:39:42.777Z,12.00
2023-05-02T05:50:11.047Z,11.20
2023-05-02T06:00:39.023Z,6.90
2023-05-02T06:21:29.256Z,6.30
2023-05-02T06:31:58.029Z,4.40
2023-05-02T06:42:24.216Z,2.80
2023-05-02T06:52:50.157Z,2.30
2023-05-02T07:03:15.946Z,5.50
2023-05-02T07:13:41.413Z,3.40
2023-05-02T07:24:07.834Z,2.40
2023-05-02T07:34:33.985Z,2.20
2023-05-02T07:45:00.384Z,2.60
2023-05-02T07:55:27.766Z,2.10
2023-05-02T08:05:53.323Z,2.70
2023-05-02T08:16:20.117Z,3.30
2023-05-02T08:26:45.725Z,3.50
2023-05-02T08:37:13.390Z,3.30
2023-05-02T08:58:06.199Z,2.90
2023-05-02T09:08:32.182Z,2.30
2023-05-02T09:18:59.083Z,1.80
2023-05-02T09:29:24.940Z,2.30
2023-05-02T09:40:09.445Z,2.50
2023-05-02T09:50:39.659Z,3.60
2023-05-02T10:01:06.166Z,2.60
2023-05-02T10:11:33.640Z,5.00
2023-05-02T10:22:00.611Z,3.60
2023-05-02T10:32:28.957Z,3.00
2023-05-02T10:42:55.755Z,3.10
2023-05-02T11:04:01.564Z,3.40
2023-05-02T11:14:53.134Z,3.30
2023-05-02T11:25:36.517Z,5.50
2023-05-02T11:36:02.991Z,7.30
2023-05-02T11:46:29.123Z,6.40
2023-05-02T11:56:55.088Z,7.80
2023-05-02T12:07:20.700Z,7.50
2023-05-02T12:17:48.662Z,7.40
2023-05-02T12:28:14.887Z,7.80
2023-05-02T12:38:41.053Z,8.60
2023-05-02T12:49:09.869Z,7.60
2023-05-02T12:59:36.048Z,6.90
2023-05-02T13:10:02.654Z,6.00
2023-05-02T13:20:28.735Z,5.40
2023-05-02T13:30:54.271Z,4.30
2023-05-02T13:41:20.287Z,3.90
2023-05-02T13:51:46.431Z,3.30
2023-05-02T14:02:12.327Z,3.30
2023-05-02T14:12:38.099Z,3.10
2023-05-02T14:23:05.313Z,2.30
2023-05-02T14:33:33.231Z,1.80
2023-05-02T14:43:59.327Z,2.20
2023-05-02T14:54:30.723Z,2.00
2023-05-02T15:04:56.713Z,2.20
2023-05-02T15:15:25.185Z,2.40
2023-05-02T15:25:51.014Z,3.10
2023-05-02T15:36:17.394Z,3.70
2023-05-02T15:46:47.077Z,4.60
2023-05-02T15:57:13.338Z,3.70
2023-05-02T16:07:39.341Z,3.80
2023-05-02T16:18:05.607Z,4.00
2023-05-02T16:28:31.705Z,4.50
2023-05-02T16:38:57.457Z,4.20
2023-05-02T16:49:23.446Z,4.20
2023-05-02T16:59:49.965Z,3.60
2023-05-02T17:10:16.337Z,3.50
2023-05-02T17:20:42.426Z,4.20
2023-05-02T17:31:08.505Z,4.40
2023-05-02T17:41:36.323Z,6.40
2023-05-02T17:52:02.188Z,7.00
2023-05-02T18:02:28.507Z,7.30
2023-05-02T18:12:54.725Z,7.50
2023-05-02T18:23:20.172Z,6.90
2023-05-02T18:33:46.770Z,6.20
2023-05-02T18:44:13.327Z,8.80
2023-05-02T18:54:39.284Z,8.10
2023-05-02T19:05:08.207Z,7.70
2023-05-02T19:15:36.099Z,11.80
2023-05-02T19:26:02.002Z,11.80
2023-05-02T19:36:28.640Z,12.00
2023-05-02T19:46:54.381Z,9.20
2023-05-02T19:57:20.543Z,9.80
2023-05-02T20:07:46.589Z,10.00
2023-05-02T20:18:12.147Z,11.80
2023-05-02T20:28:38.889Z,18.30
2023-05-02T20:39:07.555Z,17.80
2023-05-02T20:49:34.880Z,19.00
2023-05-02T21:00:00.913Z,17.10
2023-05-02T21:10:28.130Z,19.40
2023-05-02T21:20:53.758Z,18.90
2023-05-02T21:31:19.917Z,20.60
2023-05-02T21:41:45.622Z,21.40
2023-05-02T21:52:11.354Z,26.40
2023-05-02T22:02:37.144Z,28.10
2023-05-02T22:13:03.622Z,25.80
2023-05-02T22:23:31.846Z,29.70
2023-05-02T22:33:57.841Z,25.10
2023-05-02T22:44:23.926Z,27.80
2023-05-02T22:54:49.569Z,24.80
2023-05-02T23:05:15.583Z,24.70
2023-05-02T23:15:41.764Z,30.00
2023-05-02T23:26:10.522Z,31.60
2023-05-02T23:36:36.663Z,33.50
2023-05-02T23:47:02.862Z,32.10
2023-05-02T23:57:30.220Z,28.90
